createdAt,value
2023-06-29T00:01:24.786Z,5.85
2023-06-29T00:04:11.223Z,4.93
2023-06-29T00:06:57.218Z,5.18
2023-06-29T00:09:43.155Z,5.25
2023-06-29T00:12:29.386Z,5.82
2023-06-29T00:15:15.536Z,5.30
2023-06-29T00:18:01.635Z,5.15
2023-06-29T00:20:47.826Z,6.30
2023-06-29T00:23:35.709Z,5.20
2023-06-29T00:26:22.575Z,5.85
2023-06-29T00:29:08.554Z,5.47
2023-06-29T00:31:55.616Z,5.50
2023-06-29T00:34:41.660Z,5.90
2023-06-29T00:37:27.646Z,5.10
2023-06-29T00:40:13.897Z,5.80
2023-06-29T00:43:00.503Z,5.70
2023-06-29T00:45:46.224Z,5.05
2023-06-29T00:48:32.146Z,4.55
2023-06-29T00:51:19.247Z,5.32
2023-06-29T00:54:05.659Z,5.65
2023-06-29T00:56:53.737Z,5.07
2023-06-29T00:59:39.981Z,4.47
2023-06-29T01:02:26.434Z,4.22
2023-06-29T01:05:14.803Z,4.45
2023-06-29T01:08:10.529Z,5.40
2023-06-29T01:11:02.454Z,5.57
2023-06-29T01:13:49.519Z,5.35
2023-06-29T01:16:38.235Z,5.38
2023-06-29T01:19:31.002Z,5.78
2023-06-29T01:22:46.416Z,5.43
2023-06-29T01:25:36.343Z,5.00
2023-06-29T01:28:23.163Z,4.75
2023-06-29T01:31:10.792Z,4.80
2023-06-29T01:33:57.627Z,4.68
2023-06-29T01:36:47.570Z,4.57
2023-06-29T01:39:43.737Z,5.15
2023-06-29T01:42:32.580Z,4.90
2023-06-29T01:45:21.862Z,5.07
2023-06-29T01:48:08.389Z,4.03
2023-06-29T01:50:54.765Z,4.97
2023-06-29T01:53:40.694Z,4.88
2023-06-29T01:56:26.656Z,4.50
2023-06-29T01:59:12.742Z,4.88
2023-06-29T02:01:58.787Z,5.03
2023-06-29T02:07:31.444Z,4.15
2023-06-29T02:10:17.582Z,4.20
2023-06-29T02:13:05.377Z,4.70
2023-06-29T02:15:51.123Z,4.72
2023-06-29T02:18:37.119Z,4.53
2023-06-29T02:21:23.137Z,5.70
2023-06-29T02:24:09.281Z,4.57
2023-06-29T02:26:55.280Z,4.82
2023-06-29T02:29:41.134Z,4.90
2023-06-29T02:32:27.131Z,4.85
2023-06-29T02:35:14.149Z,4.63
2023-06-29T02:38:00.245Z,4.60
2023-06-29T02:40:46.979Z,4.80
2023-06-29T02:43:34.889Z,4.65
2023-06-29T02:46:21.279Z,4.53
2023-06-29T02:49:08.183Z,5.10
2023-06-29T02:51:55.812Z,4.93
2023-06-29T02:54:41.843Z,4.88
2023-06-29T02:57:27.760Z,5.85
2023-06-29T03:00:14.317Z,5.03
2023-06-29T03:03:00.853Z,5.50
2023-06-29T03:05:47.205Z,5.38
2023-06-29T03:08:33.156Z,4.90
2023-06-29T03:11:19.062Z,5.45
2023-06-29T03:14:05.102Z,5.13
2023-06-29T03:16:51.239Z,4.72
2023-06-29T03:19:37.300Z,4.68
2023-06-29T03:22:24.345Z,4.85
2023-06-29T03:25:13.798Z,4.65
2023-06-29T03:28:00.158Z,4.78
2023-06-29T03:30:46.509Z,5.05
2023-06-29T03:33:32.851Z,4.57
2023-06-29T03:36:20.251Z,5.07
2023-06-29T03:39:06.449Z,4.13
2023-06-29T03:41:52.553Z,5.03
2023-06-29T03:44:40.684Z,4.40
2023-06-29T03:47:26.774Z,7.03
2023-06-29T03:50:13.095Z,4.80
2023-06-29T03:52:59.134Z,5.75
2023-06-29T03:55:45.374Z,4.70
2023-06-29T03:58:31.398Z,4.93
2023-06-29T04:01:17.457Z,4.75
2023-06-29T04:04:04.163Z,5.22
2023-06-29T04:09:36.517Z,5.40
2023-06-29T04:15:09.794Z,4.78
2023-06-29T04:17:56.168Z,5.03
2023-06-29T04:23:28.666Z,4.82
2023-06-29T04:26:15.936Z,5.15
2023-06-29T04:29:03.693Z,9.20
2023-06-29T04:31:49.908Z,5.10
2023-06-29T04:34:36.000Z,5.15
2023-06-29T04:37:22.085Z,5.10
2023-06-29T04:40:10.725Z,5.50
2023-06-29T04:42:59.568Z,5.35
2023-06-29T04:45:47.236Z,4.82
2023-06-29T04:48:39.779Z,5.05
2023-06-29T04:51:27.391Z,5.68
2023-06-29T04:54:13.722Z,4.60
2023-06-29T04:57:00.644Z,4.60
2023-06-29T04:59:47.116Z,4.95
2023-06-29T05:02:33.104Z,4.50
2023-06-29T05:08:07.343Z,4.60
2023-06-29T05:10:53.370Z,5.13
2023-06-29T05:13:39.454Z,4.72
2023-06-29T05:16:25.443Z,4.20
2023-06-29T05:19:11.898Z,4.72
2023-06-29T05:21:57.850Z,5.22
2023-06-29T05:24:43.801Z,4.85
2023-06-29T05:27:29.907Z,5.03
2023-06-29T05:30:17.528Z,4.90
2023-06-29T05:33:04.682Z,4.93
2023-06-29T05:35:50.649Z,6.10
2023-06-29T05:38:36.750Z,5.45
2023-06-29T05:41:22.836Z,6.03
2023-06-29T05:44:10.001Z,5.65
2023-06-29T05:46:56.136Z,4.90
2023-06-29T05:49:43.757Z,5.20
2023-06-29T05:52:30.004Z,5.13
2023-06-29T05:55:16.119Z,4.85
2023-06-29T05:58:02.341Z,5.68
2023-06-29T06:00:48.524Z,5.38
2023-06-29T06:06:20.862Z,6.00
2023-06-29T06:09:07.722Z,5.00
2023-06-29T06:11:56.002Z,5.25
2023-06-29T06:14:42.252Z,4.93
2023-06-29T06:17:28.196Z,4.50
2023-06-29T06:23:00.603Z,5.07
2023-06-29T06:25:46.592Z,4.38
2023-06-29T06:28:33.167Z,4.22
2023-06-29T06:31:32.516Z,4.93
2023-06-29T06:34:19.286Z,4.95
2023-06-29T06:37:06.505Z,5.05
2023-06-29T06:39:52.447Z,4.55
2023-06-29T06:42:42.038Z,3.88
2023-06-29T06:45:27.717Z,4.55
2023-06-29T06:48:13.879Z,3.67
2023-06-29T06:53:46.011Z,3.33
2023-06-29T06:56:32.336Z,3.20
2023-06-29T07:02:05.907Z,3.53
2023-06-29T07:04:52.498Z,3.60
2023-06-29T07:07:38.650Z,3.22
2023-06-29T07:13:11.179Z,3.38
2023-06-29T07:15:58.292Z,3.33
2023-06-29T07:21:16.836Z,3.70
2023-06-29T07:24:59.732Z,3.80
2023-06-29T07:27:46.330Z,3.83
2023-06-29T07:30:32.659Z,3.78
2023-06-29T07:33:18.556Z,3.38
2023-06-29T07:36:06.122Z,3.70
2023-06-29T07:38:52.432Z,3.30
2023-06-29T07:41:39.209Z,4.38
2023-06-29T07:44:25.410Z,3.78
2023-06-29T07:47:11.574Z,3.05
2023-06-29T07:49:57.969Z,3.58
2023-06-29T07:52:44.193Z,3.30
2023-06-29T07:55:30.205Z,2.92
2023-06-29T08:01:05.495Z,3.15
2023-06-29T08:04:02.238Z,2.63
2023-06-29T08:06:51.830Z,2.90
2023-06-29T08:09:38.838Z,3.20
2023-06-29T08:12:26.153Z,3.25
2023-06-29T08:15:12.222Z,2.97
2023-06-29T08:17:58.588Z,3.22
2023-06-29T08:20:47.356Z,3.30
2023-06-29T08:23:34.254Z,3.30
2023-06-29T08:26:20.616Z,3.13
2023-06-29T08:29:06.787Z,3.05
2023-06-29T08:31:53.183Z,2.90
2023-06-29T08:34:39.461Z,3.17
2023-06-29T08:37:25.425Z,2.97
2023-06-29T08:40:12.505Z,3.55
2023-06-29T08:42:58.521Z,3.42
2023-06-29T08:45:44.894Z,3.15
2023-06-29T08:48:32.728Z,3.35
2023-06-29T08:51:21.435Z,3.17
2023-06-29T08:54:09.368Z,3.20
2023-06-29T08:56:55.807Z,3.00
2023-06-29T08:59:42.389Z,3.10
2023-06-29T09:02:29.285Z,3.03
2023-06-29T09:05:15.883Z,2.88
2023-06-29T09:08:02.468Z,3.70
2023-06-29T09:10:48.825Z,2.63
2023-06-29T09:13:34.836Z,2.55
2023-06-29T09:16:22.493Z,3.20
2023-06-29T09:19:09.484Z,2.80
2023-06-29T09:21:55.603Z,2.70
2023-06-29T09:24:56.924Z,2.95
2023-06-29T09:27:47.853Z,3.15
2023-06-29T09:30:41.533Z,2.95
2023-06-29T09:33:27.913Z,2.80
2023-06-29T09:36:14.043Z,2.90
2023-06-29T09:39:05.455Z,2.70
2023-06-29T09:41:54.468Z,2.97
2023-06-29T09:44:45.421Z,2.75
2023-06-29T09:50:23.596Z,2.90
2023-06-29T09:53:10.941Z,2.70
2023-06-29T09:55:59.591Z,2.72
2023-06-29T09:58:47.437Z,3.10
2023-06-29T10:01:34.049Z,4.18
2023-06-29T10:04:20.483Z,2.90
2023-06-29T10:07:09.988Z,3.17
2023-06-29T10:09:57.888Z,3.08
2023-06-29T10:12:43.945Z,2.70
2023-06-29T10:15:30.696Z,2.85
2023-06-29T10:18:28.446Z,2.80
2023-06-29T10:21:15.862Z,2.95
2023-06-29T10:24:03.744Z,3.20
2023-06-29T10:26:50.750Z,2.70
2023-06-29T10:29:47.040Z,3.30
2023-06-29T10:32:34.646Z,2.53
2023-06-29T10:35:26.986Z,3.00
2023-06-29T10:38:13.496Z,2.58
2023-06-29T10:41:00.573Z,3.20
2023-06-29T10:44:01.255Z,3.05
2023-06-29T10:46:51.136Z,2.63
2023-06-29T10:49:37.523Z,3.17
2023-06-29T10:55:42.240Z,2.90
2023-06-29T10:58:36.216Z,3.00
2023-06-29T11:01:22.643Z,3.53
2023-06-29T11:04:08.918Z,3.10
2023-06-29T11:06:55.330Z,2.67
2023-06-29T11:09:41.380Z,3.13
2023-06-29T11:18:21.263Z,2.78
2023-06-29T11:21:08.033Z,2.95
2023-06-29T11:23:54.342Z,3.20
2023-06-29T11:26:40.556Z,3.20
2023-06-29T11:32:14.293Z,2.83
2023-06-29T11:35:04.420Z,2.53
2023-06-29T11:37:57.231Z,2.90
2023-06-29T11:40:43.616Z,2.90
2023-06-29T11:46:19.362Z,3.00
2023-06-29T11:49:06.829Z,3.13
2023-06-29T11:51:53.361Z,3.33
2023-06-29T11:54:40.159Z,2.95
2023-06-29T11:57:26.035Z,3.00
2023-06-29T12:00:15.016Z,3.17
2023-06-29T12:03:08.170Z,3.25
2023-06-29T12:05:54.383Z,3.20
2023-06-29T12:08:42.307Z,2.92
2023-06-29T12:11:29.582Z,3.58
2023-06-29T12:14:15.690Z,3.05
2023-06-29T12:20:08.989Z,3.13
2023-06-29T12:22:56.700Z,3.05
2023-06-29T12:25:44.796Z,3.20
2023-06-29T12:28:32.328Z,3.63
2023-06-29T12:31:29.170Z,3.40
2023-06-29T12:34:16.887Z,3.53
2023-06-29T12:37:03.789Z,3.00
2023-06-29T12:39:50.114Z,3.00
2023-06-29T12:42:38.728Z,3.53
2023-06-29T12:45:24.848Z,3.42
2023-06-29T12:48:10.679Z,3.17
2023-06-29T12:51:01.031Z,3.00
2023-06-29T12:53:47.119Z,3.10
2023-06-29T12:56:33.007Z,3.13
2023-06-29T13:02:06.477Z,3.20
2023-06-29T13:04:52.763Z,13.38
2023-06-29T13:10:24.712Z,3.45
2023-06-29T13:13:10.840Z,3.08
2023-06-29T13:15:57.177Z,2.85
2023-06-29T13:18:43.125Z,3.53
2023-06-29T13:21:29.040Z,3.80
2023-06-29T13:27:05.794Z,3.03
2023-06-29T13:29:52.066Z,3.28
2023-06-29T13:32:38.441Z,2.88
2023-06-29T13:35:25.119Z,2.95
2023-06-29T13:38:11.439Z,2.60
2023-06-29T13:40:57.379Z,3.00
2023-06-29T13:43:43.269Z,3.13
2023-06-29T13:46:29.187Z,2.90
2023-06-29T13:49:16.769Z,3.40
2023-06-29T13:52:03.231Z,3.25
2023-06-29T13:54:49.458Z,2.90
2023-06-29T13:57:35.401Z,3.22
2023-06-29T14:03:08.397Z,3.05
2023-06-29T14:05:54.597Z,3.15
2023-06-29T14:08:40.907Z,2.97
2023-06-29T14:11:28.899Z,3.53
2023-06-29T14:14:14.800Z,3.05
2023-06-29T14:19:47.151Z,2.95
2023-06-29T14:22:34.142Z,3.00
2023-06-29T14:25:20.402Z,3.22
2023-06-29T14:30:52.544Z,3.17
2023-06-29T14:33:38.742Z,2.83
2023-06-29T14:36:24.868Z,2.97
2023-06-29T14:39:11.411Z,2.70
2023-06-29T14:41:57.738Z,2.97
2023-06-29T14:44:45.127Z,3.10
2023-06-29T14:47:31.354Z,2.92
2023-06-29T14:50:17.248Z,3.00
2023-06-29T14:53:04.094Z,3.53
2023-06-29T14:55:50.786Z,2.85
2023-06-29T14:58:37.745Z,3.20
2023-06-29T15:01:23.947Z,3.83
2023-06-29T15:04:11.681Z,3.03
2023-06-29T15:06:57.776Z,3.00
2023-06-29T15:09:44.516Z,3.00
2023-06-29T15:12:30.705Z,2.95
2023-06-29T15:15:16.706Z,2.85
2023-06-29T15:20:49.748Z,3.13
2023-06-29T15:23:36.040Z,2.70
2023-06-29T15:29:10.028Z,2.88
2023-06-29T15:31:56.088Z,2.90
2023-06-29T15:34:42.526Z,3.47
2023-06-29T15:37:28.762Z,3.08
2023-06-29T15:40:15.489Z,2.90
2023-06-29T15:43:01.782Z,3.10
2023-06-29T15:45:47.950Z,2.83
2023-06-29T15:48:34.409Z,3.10
2023-06-29T15:51:21.489Z,2.75
2023-06-29T15:54:07.567Z,2.83
2023-06-29T15:56:53.447Z,3.20
2023-06-29T16:02:25.375Z,3.10
2023-06-29T16:05:11.749Z,2.80
2023-06-29T16:07:58.520Z,3.13
2023-06-29T16:10:44.702Z,2.97
2023-06-29T16:13:31.205Z,3.22
2023-06-29T16:16:18.190Z,3.10
2023-06-29T16:19:04.570Z,2.90
2023-06-29T16:21:50.520Z,3.45
2023-06-29T16:24:36.325Z,2.97
2023-06-29T16:27:22.413Z,3.20
2023-06-29T16:30:10.276Z,2.97
2023-06-29T16:32:56.107Z,2.97
2023-06-29T16:35:44.910Z,3.30
2023-06-29T16:38:31.664Z,3.08
2023-06-29T16:41:18.756Z,2.97
2023-06-29T16:44:05.375Z,3.40
2023-06-29T16:46:53.317Z,2.95
2023-06-29T16:49:40.657Z,3.17
2023-06-29T16:52:26.708Z,3.20
2023-06-29T16:55:12.690Z,2.92
2023-06-29T16:57:58.695Z,2.95
2023-06-29T17:00:45.331Z,3.00
2023-06-29T17:03:31.222Z,3.70
2023-06-29T17:06:17.703Z,3.30
2023-06-29T17:09:03.779Z,2.70
2023-06-29T17:11:49.854Z,3.72
2023-06-29T17:17:21.799Z,3.03
2023-06-29T17:20:08.712Z,2.70
2023-06-29T17:22:55.079Z,3.03
2023-06-29T17:25:51.526Z,3.20
2023-06-29T17:28:37.814Z,3.10
2023-06-29T17:31:25.533Z,4.10
2023-06-29T17:34:11.811Z,4.68
2023-06-29T17:36:59.698Z,3.00
2023-06-29T17:39:45.479Z,3.20
2023-06-29T17:42:32.962Z,3.13
2023-06-29T17:45:19.138Z,3.10
2023-06-29T17:48:09.581Z,2.80
2023-06-29T17:50:56.130Z,3.10
2023-06-29T17:53:43.920Z,3.10
2023-06-29T17:56:31.682Z,3.20
2023-06-29T17:59:17.661Z,2.83
2023-06-29T18:02:04.105Z,3.20
2023-06-29T18:04:50.289Z,3.30
2023-06-29T18:07:36.386Z,3.20
2023-06-29T18:10:22.716Z,2.90
2023-06-29T18:13:08.755Z,3.10
2023-06-29T18:15:55.395Z,3.30
2023-06-29T18:18:41.261Z,2.83
2023-06-29T18:21:27.137Z,4.03
2023-06-29T18:26:59.107Z,3.13
2023-06-29T18:29:45.058Z,3.25
2023-06-29T18:32:30.911Z,3.10
2023-06-29T18:35:16.757Z,3.40
2023-06-29T18:38:02.844Z,3.58
2023-06-29T18:40:48.929Z,3.45
2023-06-29T18:43:34.884Z,3.22
2023-06-29T18:46:20.997Z,3.22
2023-06-29T18:49:07.266Z,2.92
2023-06-29T18:51:53.390Z,3.25
2023-06-29T18:54:39.428Z,3.92
2023-06-29T19:00:11.848Z,3.30
2023-06-29T19:02:57.959Z,3.78
2023-06-29T19:05:44.506Z,3.78
2023-06-29T19:08:31.406Z,3.80
2023-06-29T19:11:17.541Z,3.50
2023-06-29T19:14:03.484Z,4.32
2023-06-29T19:16:49.515Z,4.05
2023-06-29T19:19:35.957Z,4.57
2023-06-29T19:22:21.873Z,3.50
2023-06-29T19:25:08.333Z,3.20
2023-06-29T19:27:54.204Z,4.10
2023-06-29T19:30:40.315Z,3.90
2023-06-29T19:33:26.356Z,4.10
2023-06-29T19:36:12.285Z,3.85
2023-06-29T19:38:58.652Z,4.28
2023-06-29T19:41:44.540Z,4.85
2023-06-29T19:44:30.410Z,4.47
2023-06-29T19:47:16.397Z,4.20
2023-06-29T19:50:02.319Z,3.63
2023-06-29T19:52:48.654Z,4.18
2023-06-29T19:55:36.395Z,3.75
2023-06-29T19:58:25.684Z,3.80
2023-06-29T20:01:11.724Z,4.53
2023-06-29T20:04:02.302Z,5.20
2023-06-29T20:06:48.972Z,4.80
2023-06-29T20:09:35.236Z,5.05
2023-06-29T20:12:21.195Z,4.75
2023-06-29T20:15:09.612Z,4.55
2023-06-29T20:17:55.671Z,3.90
2023-06-29T20:20:42.026Z,4.40
2023-06-29T20:23:27.978Z,3.90
2023-06-29T20:26:14.069Z,4.55
2023-06-29T20:29:00.790Z,4.30
2023-06-29T20:31:46.877Z,4.40
2023-06-29T20:34:32.815Z,4.50
2023-06-29T20:37:18.811Z,3.85
2023-06-29T20:40:05.399Z,4.50
2023-06-29T20:42:51.677Z,4.90
2023-06-29T20:45:38.451Z,4.65
2023-06-29T20:48:24.522Z,4.45
2023-06-29T20:51:17.586Z,4.22
2023-06-29T20:54:04.555Z,4.10
2023-06-29T20:56:50.905Z,3.63
2023-06-29T20:59:37.158Z,3.95
2023-06-29T21:02:25.242Z,4.00
2023-06-29T21:05:11.664Z,4.90
2023-06-29T21:07:58.178Z,4.47
2023-06-29T21:10:44.255Z,4.00
2023-06-29T21:13:30.458Z,4.30
2023-06-29T21:16:16.894Z,4.05
2023-06-29T21:21:49.200Z,4.40
2023-06-29T21:24:35.604Z,4.55
2023-06-29T21:27:21.932Z,4.47
2023-06-29T21:30:10.731Z,5.05
2023-06-29T21:32:57.115Z,4.60
2023-06-29T21:35:43.836Z,5.53
2023-06-29T21:38:32.237Z,5.30
2023-06-29T21:41:18.835Z,4.88
2023-06-29T21:44:05.377Z,4.25
2023-06-29T21:46:52.042Z,4.90
2023-06-29T21:52:25.458Z,4.90
2023-06-29T21:55:11.555Z,4.70
2023-06-29T21:57:57.623Z,5.20
2023-06-29T22:03:30.654Z,4.50
2023-06-29T22:06:16.804Z,5.07
2023-06-29T22:09:03.969Z,4.55
2023-06-29T22:11:50.101Z,4.90
2023-06-29T22:14:36.101Z,5.43
2023-06-29T22:17:23.034Z,4.50
2023-06-29T22:20:17.057Z,4.97
2023-06-29T22:23:03.694Z,4.47
2023-06-29T22:25:49.789Z,4.55
2023-06-29T22:28:35.607Z,4.95
2023-06-29T22:31:22.130Z,4.82
2023-06-29T22:34:08.607Z,5.05
2023-06-29T22:36:54.553Z,4.60
2023-06-29T22:39:43.118Z,4.35
2023-06-29T22:42:29.404Z,4.80
2023-06-29T22:45:15.267Z,4.43
2023-06-29T22:48:03.183Z,4.70
2023-06-29T22:50:50.147Z,5.68
2023-06-29T22:53:36.437Z,5.10
2023-06-29T22:56:23.038Z,4.95
2023-06-29T22:59:10.796Z,4.57
2023-06-29T23:01:57.004Z,4.90
2023-06-29T23:04:44.200Z,4.50
2023-06-29T23:07:31.085Z,4.10
2023-06-29T23:10:17.516Z,4.32
2023-06-29T23:13:03.729Z,4.65
2023-06-29T23:15:49.975Z,4.35
2023-06-29T23:21:22.351Z,5.28
2023-06-29T23:24:10.041Z,5.00
2023-06-29T23:26:56.261Z,4.43
2023-06-29T23:29:42.275Z,4.50
2023-06-29T23:32:28.385Z,4.43
2023-06-29T23:35:14.335Z,4.38
2023-06-29T23:38:00.298Z,4.63
2023-06-29T23:40:46.124Z,4.68
2023-06-29T23:43:31.965Z,4.07
2023-06-29T23:46:18.452Z,4.40
2023-06-29T23:49:06.760Z,4.45
2023-06-29T23:51:52.841Z,4.70
2023-06-29T23:54:39.175Z,4.60
